createdAt,value
2023-04-03T00:01:26.997Z,5.84
2023-04-03T00:03:56.977Z,5.96
2023-04-03T00:06:26.667Z,5.80
2023-04-03T00:08:55.341Z,5.88
2023-04-03T00:11:23.461Z,5.71
2023-04-03T00:13:51.611Z,5.71
2023-04-03T00:16:20.551Z,5.68
2023-04-03T00:18:48.869Z,5.71
2023-04-03T00:21:18.765Z,5.77
2023-04-03T00:23:47.532Z,5.52
2023-04-03T00:26:15.723Z,5.48
2023-04-03T00:28:43.909Z,5.51
2023-04-03T00:31:12.404Z,5.50
2023-04-03T00:33:40.988Z,5.44
2023-04-03T00:36:10.461Z,5.61
2023-04-03T00:38:40.770Z,5.58
2023-04-03T00:41:08.932Z,5.52
2023-04-03T00:43:37.047Z,5.49
2023-04-03T00:46:06.004Z,5.39
2023-04-03T00:48:37.000Z,5.40
2023-04-03T00:51:08.470Z,5.34
2023-04-03T00:53:42.319Z,5.21
2023-04-03T00:56:15.090Z,5.31
2023-04-03T00:58:50.682Z,5.34
2023-04-03T01:01:23.164Z,5.46
2023-04-03T01:03:51.457Z,5.35
2023-04-03T01:06:25.673Z,5.34
2023-04-03T01:08:56.644Z,5.30
2023-04-03T01:11:25.256Z,5.10
2023-04-03T01:13:53.712Z,5.18
2023-04-03T01:16:22.195Z,5.15
2023-04-03T01:18:50.799Z,5.18
2023-04-03T01:21:58.918Z,5.00
2023-04-03T01:24:47.802Z,5.38
2023-04-03T01:27:16.043Z,5.40
2023-04-03T01:29:45.633Z,5.38
2023-04-03T01:32:15.861Z,5.42
2023-04-03T01:34:44.449Z,5.23
2023-04-03T01:37:13.039Z,5.35
2023-04-03T01:39:41.287Z,5.11
2023-04-03T01:42:09.511Z,5.36
2023-04-03T01:44:37.826Z,5.19
2023-04-03T01:47:08.505Z,5.34
2023-04-03T01:49:38.309Z,5.42
2023-04-03T01:52:06.586Z,5.40
2023-04-03T01:54:34.765Z,5.26
2023-04-03T01:57:03.295Z,5.12
2023-04-03T01:59:31.508Z,5.19
2023-04-03T02:01:59.689Z,5.23
2023-04-03T02:04:28.401Z,5.34
2023-04-03T02:06:58.231Z,5.38
2023-04-03T02:09:27.471Z,5.13
2023-04-03T02:11:56.108Z,5.27
2023-04-03T02:14:24.714Z,5.36
2023-04-03T02:16:53.069Z,5.30
2023-04-03T02:19:21.531Z,5.27
2023-04-03T02:21:49.624Z,5.24
2023-04-03T02:24:19.388Z,5.26
2023-04-03T02:26:47.985Z,5.12
2023-04-03T02:29:16.544Z,5.27
2023-04-03T02:31:44.658Z,5.26
2023-04-03T02:34:12.921Z,5.35
2023-04-03T02:36:41.155Z,5.31
2023-04-03T02:39:09.301Z,5.22
2023-04-03T02:41:38.914Z,5.10
2023-04-03T02:44:09.405Z,5.01
2023-04-03T02:46:37.780Z,4.88
2023-04-03T02:49:06.378Z,4.92
2023-04-03T02:51:34.525Z,4.79
2023-04-03T02:54:03.016Z,4.81
2023-04-03T02:56:31.309Z,4.81
2023-04-03T02:59:01.080Z,4.89
2023-04-03T03:01:32.770Z,4.90
2023-04-03T03:04:01.633Z,4.89
2023-04-03T03:06:30.169Z,4.77
2023-04-03T03:08:58.903Z,4.73
2023-04-03T03:11:27.701Z,4.78
2023-04-03T03:13:56.161Z,4.91
2023-04-03T03:16:26.283Z,4.81
2023-04-03T03:18:54.478Z,4.69
2023-04-03T03:21:22.727Z,4.73
2023-04-03T03:23:51.214Z,4.81
2023-04-03T03:26:19.734Z,4.69
2023-04-03T03:28:47.989Z,4.63
2023-04-03T03:31:16.490Z,4.60
2023-04-03T03:33:46.212Z,4.60
2023-04-03T03:36:14.428Z,4.67
2023-04-03T03:38:42.847Z,4.67
2023-04-03T03:41:10.865Z,4.56
2023-04-03T03:43:39.308Z,4.54
2023-04-03T03:46:07.782Z,4.60
2023-04-03T03:48:36.412Z,4.70
2023-04-03T03:51:06.250Z,4.75
2023-04-03T03:53:34.491Z,4.74
2023-04-03T03:56:02.846Z,4.77
2023-04-03T03:58:31.410Z,4.84
2023-04-03T04:01:02.397Z,4.82
2023-04-03T04:03:30.824Z,4.75
2023-04-03T04:05:59.229Z,4.72
2023-04-03T04:08:28.887Z,4.79
2023-04-03T04:10:57.137Z,4.65
2023-04-03T04:13:25.804Z,4.52
2023-04-03T04:15:54.229Z,4.62
2023-04-03T04:18:23.647Z,4.42
2023-04-03T04:20:52.190Z,4.76
2023-04-03T04:23:21.065Z,4.50
2023-04-03T04:25:51.545Z,4.54
2023-04-03T04:28:19.926Z,4.43
2023-04-03T04:30:48.409Z,4.56
2023-04-03T04:33:17.307Z,4.64
2023-04-03T04:35:46.340Z,4.57
2023-04-03T04:38:14.741Z,4.66
2023-04-03T04:40:43.133Z,4.69
2023-04-03T04:43:15.586Z,4.67
2023-04-03T04:45:47.192Z,4.75
2023-04-03T04:48:15.801Z,4.69
2023-04-03T04:50:44.044Z,4.47
2023-04-03T04:53:12.200Z,4.48
2023-04-03T04:55:40.429Z,4.80
2023-04-03T04:58:08.803Z,4.74
2023-04-03T05:00:38.566Z,4.71
2023-04-03T05:03:07.097Z,4.39
2023-04-03T05:05:36.829Z,4.49
2023-04-03T05:08:05.984Z,4.61
2023-04-03T05:10:34.756Z,4.48
2023-04-03T05:13:02.940Z,4.42
2023-04-03T05:15:31.218Z,4.48
2023-04-03T05:18:01.335Z,4.51
2023-04-03T05:20:29.786Z,4.44
2023-04-03T05:23:03.882Z,4.40
2023-04-03T05:25:32.436Z,4.40
2023-04-03T05:28:01.037Z,4.50
2023-04-03T05:30:29.404Z,4.49
2023-04-03T05:32:58.039Z,4.39
2023-04-03T05:35:27.895Z,4.49
2023-04-03T05:37:56.439Z,4.46
2023-04-03T05:40:25.048Z,4.10
2023-04-03T05:42:54.608Z,4.38
2023-04-03T05:45:22.958Z,4.30
2023-04-03T05:47:51.373Z,4.37
2023-04-03T05:50:20.182Z,4.58
2023-04-03T05:52:52.387Z,4.55
2023-04-03T05:55:21.023Z,4.64
2023-04-03T05:57:49.307Z,4.66
2023-04-03T06:00:19.150Z,4.70
2023-04-03T06:02:47.590Z,4.36
2023-04-03T06:05:15.808Z,4.29
2023-04-03T06:07:45.914Z,4.91
2023-04-03T06:10:16.143Z,4.87
2023-04-03T06:12:44.469Z,4.71
2023-04-03T06:15:12.951Z,4.82
2023-04-03T06:17:41.404Z,4.54
2023-04-03T06:20:10.651Z,4.65
2023-04-03T06:22:39.191Z,4.77
2023-04-03T06:25:08.880Z,4.91
2023-04-03T06:27:39.072Z,4.82
2023-04-03T06:30:10.036Z,5.08
2023-04-03T06:32:38.889Z,5.17
2023-04-03T06:35:08.304Z,4.85
2023-04-03T06:37:36.790Z,5.32
2023-04-03T06:40:05.677Z,5.23
2023-04-03T06:42:36.006Z,5.37
2023-04-03T06:45:07.319Z,5.42
2023-04-03T06:47:35.705Z,5.45
2023-04-03T06:50:03.986Z,5.36
2023-04-03T06:52:32.489Z,5.28
2023-04-03T06:55:01.098Z,5.33
2023-04-03T06:57:29.387Z,5.22
2023-04-03T06:59:58.280Z,5.69
2023-04-03T07:02:28.394Z,5.58
2023-04-03T07:04:56.723Z,5.68
2023-04-03T07:07:25.300Z,5.45
2023-04-03T07:09:53.607Z,5.78
2023-04-03T07:12:25.143Z,5.80
2023-04-03T07:14:54.100Z,5.61
2023-04-03T07:17:22.422Z,5.89
2023-04-03T07:19:52.209Z,5.16
2023-04-03T07:22:20.882Z,5.61
2023-04-03T07:24:49.086Z,5.83
2023-04-03T07:27:18.740Z,5.71
2023-04-03T07:29:47.494Z,6.21
2023-04-03T07:32:16.025Z,6.16
2023-04-03T07:34:46.990Z,6.15
2023-04-03T07:37:16.884Z,6.23
2023-04-03T07:39:46.496Z,6.28
2023-04-03T07:42:15.026Z,6.21
2023-04-03T07:44:44.081Z,6.23
2023-04-03T07:47:12.397Z,6.50
2023-04-03T07:49:41.608Z,6.37
2023-04-03T07:52:11.040Z,6.66
2023-04-03T07:54:40.962Z,6.91
2023-04-03T07:57:09.234Z,6.67
2023-04-03T07:59:40.947Z,6.52
2023-04-03T08:02:11.423Z,6.87
2023-04-03T08:04:39.871Z,6.80
2023-04-03T08:07:08.332Z,6.84
2023-04-03T08:09:36.730Z,6.88
2023-04-03T08:12:06.772Z,6.93
2023-04-03T08:14:36.817Z,7.12
2023-04-03T08:17:06.578Z,6.95
2023-04-03T08:19:34.913Z,7.28
2023-04-03T08:22:04.560Z,7.31
2023-04-03T08:24:33.141Z,7.29
2023-04-03T08:27:01.968Z,7.26
2023-04-03T08:29:33.010Z,7.38
2023-04-03T08:32:02.084Z,7.54
2023-04-03T08:34:30.296Z,7.60
2023-04-03T08:36:58.890Z,7.53
2023-04-03T08:39:27.193Z,8.11
2023-04-03T08:41:59.645Z,9.09
2023-04-03T08:44:42.485Z,9.43
2023-04-03T08:47:20.401Z,9.72
2023-04-03T08:49:53.225Z,9.97
2023-04-03T08:52:25.326Z,10.62
2023-04-03T08:54:57.654Z,9.95
2023-04-03T08:57:33.539Z,10.31
2023-04-03T09:00:09.036Z,10.13
2023-04-03T09:02:46.763Z,9.96
2023-04-03T09:05:18.702Z,10.02
2023-04-03T09:07:50.194Z,9.67
2023-04-03T09:10:25.263Z,9.97
2023-04-03T09:13:02.058Z,10.06
2023-04-03T09:15:39.157Z,10.14
2023-04-03T09:18:16.985Z,9.84
2023-04-03T09:20:53.137Z,9.96
2023-04-03T09:23:29.283Z,9.80
2023-04-03T09:26:04.970Z,9.97
2023-04-03T09:28:43.153Z,10.06
2023-04-03T09:31:24.247Z,10.08
2023-04-03T09:33:57.662Z,10.19
2023-04-03T09:36:40.805Z,10.49
2023-04-03T09:39:14.578Z,10.38
2023-04-03T09:41:43.874Z,10.39
2023-04-03T09:44:26.245Z,10.31
2023-04-03T09:46:57.557Z,9.92
2023-04-03T09:49:25.865Z,9.92
2023-04-03T09:51:54.905Z,9.77
2023-04-03T09:54:37.171Z,10.65
2023-04-03T09:57:11.311Z,10.51
2023-04-03T09:59:44.832Z,10.54
2023-04-03T10:02:37.103Z,10.46
2023-04-03T10:05:10.050Z,10.45
2023-04-03T10:07:44.459Z,10.40
2023-04-03T10:10:26.816Z,10.49
2023-04-03T10:13:09.177Z,10.58
2023-04-03T10:15:44.779Z,10.69
2023-04-03T10:18:31.696Z,11.07
2023-04-03T10:21:06.189Z,10.85
2023-04-03T10:23:43.631Z,10.36
2023-04-03T10:26:18.877Z,9.88
2023-04-03T10:28:55.431Z,10.71
2023-04-03T10:31:30.466Z,11.00
2023-04-03T10:34:08.304Z,10.65
2023-04-03T10:36:44.498Z,10.93
2023-04-03T10:39:24.727Z,10.68
2023-04-03T10:42:16.719Z,10.65
2023-04-03T10:45:02.442Z,10.56
2023-04-03T10:47:39.374Z,10.25
2023-04-03T10:50:28.160Z,10.22
2023-04-03T10:53:03.927Z,10.13
2023-04-03T10:55:39.228Z,10.06
2023-04-03T10:58:09.591Z,10.23
2023-04-03T11:00:43.853Z,10.40
2023-04-03T11:03:19.190Z,10.42
2023-04-03T11:05:53.958Z,10.13
2023-04-03T11:08:29.142Z,10.14
2023-04-03T11:11:02.266Z,10.24
2023-04-03T11:13:37.562Z,10.36
2023-04-03T11:16:08.029Z,10.71
2023-04-03T11:18:42.565Z,10.71
2023-04-03T11:21:17.428Z,10.62
2023-04-03T11:23:49.906Z,10.37
2023-04-03T11:26:22.018Z,10.74
2023-04-03T11:28:56.601Z,9.93
2023-04-03T11:31:42.861Z,10.20
2023-04-03T11:34:23.880Z,10.54
2023-04-03T11:36:57.714Z,10.30
2023-04-03T11:39:30.687Z,10.78
2023-04-03T11:42:17.071Z,11.21
2023-04-03T11:44:45.797Z,10.78
2023-04-03T11:47:34.917Z,10.62
2023-04-03T11:50:05.604Z,10.64
2023-04-03T11:53:04.093Z,10.85
2023-04-03T11:55:56.326Z,10.52
2023-04-03T11:58:26.314Z,11.04
2023-04-03T12:01:00.809Z,11.37
2023-04-03T12:04:08.218Z,11.11
2023-04-03T12:07:14.983Z,11.17
2023-04-03T12:10:31.088Z,11.17
2023-04-03T12:13:05.570Z,10.98
2023-04-03T12:15:54.452Z,10.64
2023-04-03T12:19:04.200Z,10.80
2023-04-03T12:22:10.414Z,11.23
2023-04-03T12:24:41.761Z,10.89
2023-04-03T12:27:31.394Z,11.34
2023-04-03T12:30:11.025Z,11.37
2023-04-03T12:33:11.885Z,11.17
2023-04-03T12:35:50.906Z,11.44
2023-04-03T12:38:46.833Z,11.78
2023-04-03T12:41:25.035Z,11.88
2023-04-03T12:44:10.728Z,12.17
2023-04-03T12:46:42.124Z,12.34
2023-04-03T12:49:33.487Z,12.42
2023-04-03T12:52:02.755Z,12.41
2023-04-03T12:54:35.084Z,11.50
2023-04-03T12:57:13.587Z,11.29
2023-04-03T12:59:44.965Z,11.39
2023-04-03T13:02:24.531Z,11.81
2023-04-03T13:04:53.689Z,11.46
2023-04-03T13:07:27.277Z,11.27
2023-04-03T13:10:00.877Z,10.90
2023-04-03T13:12:32.200Z,11.18
2023-04-03T13:15:06.828Z,11.42
2023-04-03T13:17:41.438Z,11.74
2023-04-03T13:20:22.043Z,11.36
2023-04-03T13:22:55.272Z,11.05
2023-04-03T13:25:26.856Z,11.11
2023-04-03T13:28:06.458Z,11.31
2023-04-03T13:30:43.702Z,11.23
2023-04-03T13:33:24.257Z,11.08
2023-04-03T13:35:59.356Z,11.29
2023-04-03T13:38:32.565Z,10.96
2023-04-03T13:41:03.789Z,10.81
2023-04-03T13:43:34.317Z,10.72
2023-04-03T13:46:08.668Z,10.63
2023-04-03T13:48:43.848Z,10.76
2023-04-03T13:51:23.688Z,10.72
2023-04-03T13:53:54.599Z,10.87
2023-04-03T13:56:28.967Z,10.81
2023-04-03T13:59:01.555Z,10.89
2023-04-03T14:01:43.800Z,10.91
2023-04-03T14:04:19.806Z,10.82
2023-04-03T14:06:49.168Z,10.95
2023-04-03T14:09:18.721Z,10.98
2023-04-03T14:11:48.603Z,11.09
2023-04-03T14:14:20.447Z,10.93
2023-04-03T14:16:55.405Z,10.91
2023-04-03T14:19:26.614Z,11.27
2023-04-03T14:21:58.536Z,11.16
2023-04-03T14:24:26.911Z,11.05
2023-04-03T14:26:56.720Z,11.11
2023-04-03T14:29:26.075Z,10.74
2023-04-03T14:32:07.820Z,11.06
2023-04-03T14:34:42.671Z,11.18
2023-04-03T14:37:14.118Z,11.10
2023-04-03T14:39:43.200Z,10.86
2023-04-03T14:42:15.816Z,10.92
2023-04-03T14:44:44.262Z,10.69
2023-04-03T14:47:27.854Z,10.55
2023-04-03T14:50:00.002Z,10.69
2023-04-03T14:52:31.218Z,10.53
2023-04-03T14:54:59.750Z,10.61
2023-04-03T14:57:30.443Z,10.76
2023-04-03T14:59:58.584Z,10.71
2023-04-03T15:02:32.017Z,10.65
2023-04-03T15:05:01.843Z,10.63
2023-04-03T15:07:32.537Z,10.49
2023-04-03T15:10:02.363Z,10.74
2023-04-03T15:12:30.870Z,10.85
2023-04-03T15:15:02.825Z,10.71
2023-04-03T15:17:33.777Z,10.74
2023-04-03T15:20:02.520Z,10.95
2023-04-03T15:22:30.858Z,10.89
2023-04-03T15:24:59.345Z,10.89
2023-04-03T15:27:27.797Z,10.60
2023-04-03T15:29:56.393Z,10.33
2023-04-03T15:32:25.213Z,9.90
2023-04-03T15:34:56.847Z,10.31
2023-04-03T15:37:26.029Z,10.21
2023-04-03T15:39:54.308Z,10.06
2023-04-03T15:42:22.789Z,10.19
2023-04-03T15:44:51.268Z,10.01
2023-04-03T15:47:19.554Z,10.27
2023-04-03T15:49:47.862Z,10.05
2023-04-03T15:52:17.888Z,9.99
2023-04-03T15:54:46.317Z,10.31
2023-04-03T15:57:14.721Z,10.06
2023-04-03T15:59:43.246Z,10.20
2023-04-03T16:02:14.134Z,9.99
2023-04-03T16:04:42.700Z,10.00
2023-04-03T16:07:11.167Z,9.78
2023-04-03T16:09:40.693Z,9.83
2023-04-03T16:12:08.817Z,9.82
2023-04-03T16:14:37.330Z,9.83
2023-04-03T16:17:05.728Z,9.82
2023-04-03T16:19:34.140Z,9.73
2023-04-03T16:22:02.835Z,9.65
2023-04-03T16:24:33.176Z,10.05
2023-04-03T16:27:02.826Z,10.06
2023-04-03T16:29:31.072Z,9.99
2023-04-03T16:32:03.763Z,9.59
2023-04-03T16:34:33.570Z,9.65
2023-04-03T16:37:02.472Z,10.01
2023-04-03T16:39:30.652Z,10.15
2023-04-03T16:41:59.078Z,10.04
2023-04-03T16:44:28.950Z,9.98
2023-04-03T16:46:57.321Z,9.59
2023-04-03T16:49:31.353Z,9.71
2023-04-03T16:51:59.862Z,9.56
2023-04-03T16:54:28.566Z,9.60
2023-04-03T16:56:57.110Z,9.78
2023-04-03T16:59:25.647Z,9.94
2023-04-03T17:01:55.470Z,9.76
2023-04-03T17:04:24.264Z,9.77
2023-04-03T17:06:53.083Z,9.85
2023-04-03T17:09:24.027Z,9.79
2023-04-03T17:11:52.271Z,9.54
2023-04-03T17:14:20.747Z,9.66
2023-04-03T17:16:49.613Z,9.76
2023-04-03T17:19:22.130Z,9.79
2023-04-03T17:21:50.668Z,9.77
2023-04-03T17:24:19.801Z,9.25
2023-04-03T17:26:48.033Z,9.50
2023-04-03T17:29:16.760Z,9.52
2023-04-03T17:31:44.966Z,9.36
2023-04-03T17:34:13.719Z,9.33
2023-04-03T17:36:43.578Z,9.34
2023-04-03T17:39:12.266Z,9.39
2023-04-03T17:41:41.420Z,9.45
2023-04-03T17:44:10.110Z,9.22
2023-04-03T17:46:38.503Z,9.41
2023-04-03T17:49:06.884Z,9.44
2023-04-03T17:51:35.523Z,9.25
2023-04-03T17:54:05.195Z,9.23
2023-04-03T17:56:34.170Z,9.29
2023-04-03T17:59:02.875Z,9.55
2023-04-03T18:01:33.798Z,9.40
2023-04-03T18:04:10.551Z,9.33
2023-04-03T18:06:41.777Z,9.39
2023-04-03T18:09:15.478Z,9.25
2023-04-03T18:11:46.938Z,9.42
2023-04-03T18:14:21.127Z,9.37
2023-04-03T18:16:49.489Z,9.36
2023-04-03T18:22:09.915Z,9.55
2023-04-03T18:24:41.412Z,9.42
2023-04-03T18:27:14.190Z,9.62
2023-04-03T18:29:45.241Z,9.67
2023-04-03T18:32:16.271Z,9.53
2023-04-03T18:34:44.883Z,9.36
2023-04-03T18:37:13.303Z,9.69
2023-04-03T18:39:43.248Z,9.24
2023-04-03T18:42:15.952Z,9.52
2023-04-03T18:44:46.292Z,9.74
2023-04-03T18:47:15.229Z,9.40
2023-04-03T18:49:44.965Z,9.57
2023-04-03T18:52:14.085Z,9.34
2023-04-03T18:54:44.246Z,9.34
2023-04-03T18:57:12.422Z,9.51
2023-04-03T18:59:40.705Z,9.67
2023-04-03T19:02:10.900Z,9.76
2023-04-03T19:04:39.185Z,9.65
2023-04-03T19:07:13.614Z,9.57
2023-04-03T19:09:43.423Z,9.76
2023-04-03T19:12:11.837Z,9.81
2023-04-03T19:14:42.502Z,9.97
2023-04-03T19:17:21.801Z,10.05
2023-04-03T19:19:50.118Z,9.98
2023-04-03T19:22:18.738Z,9.94
2023-04-03T19:24:48.501Z,9.86
2023-04-03T19:27:20.767Z,9.92
2023-04-03T19:29:58.293Z,9.86
2023-04-03T19:32:33.068Z,9.88
2023-04-03T19:35:07.348Z,9.83
2023-04-03T19:37:35.756Z,9.44
2023-04-03T19:40:06.988Z,9.64
2023-04-03T19:42:37.166Z,9.37
2023-04-03T19:45:06.016Z,9.34
2023-04-03T19:47:35.717Z,9.26
2023-04-03T19:50:04.059Z,9.33
2023-04-03T19:52:32.327Z,9.28
2023-04-03T19:55:01.228Z,9.21
2023-04-03T19:57:31.300Z,9.06
2023-04-03T19:59:59.551Z,9.15
2023-04-03T20:02:27.951Z,9.21
2023-04-03T20:04:56.406Z,9.21
2023-04-03T20:07:25.452Z,9.27
2023-04-03T20:09:53.675Z,9.20
2023-04-03T20:12:21.924Z,9.11
2023-04-03T20:14:51.926Z,9.26
2023-04-03T20:17:20.299Z,9.20
2023-04-03T20:19:48.471Z,9.09
2023-04-03T20:22:16.691Z,9.28
2023-04-03T20:24:44.888Z,9.25
2023-04-03T20:27:13.461Z,9.38
2023-04-03T20:29:41.679Z,9.45
2023-04-03T20:32:12.174Z,9.44
2023-04-03T20:34:40.598Z,9.13
2023-04-03T20:37:10.346Z,8.98
2023-04-03T20:39:38.752Z,8.83
2023-04-03T20:42:07.254Z,8.73
2023-04-03T20:44:35.597Z,8.63
2023-04-03T20:47:04.029Z,8.48
2023-04-03T20:49:34.035Z,8.52
2023-04-03T20:52:02.465Z,8.48
2023-04-03T20:54:30.547Z,8.47
2023-04-03T20:56:59.209Z,8.55
2023-04-03T20:59:27.635Z,8.50
2023-04-03T21:01:56.521Z,8.64
2023-04-03T21:04:30.624Z,8.72
2023-04-03T21:07:37.862Z,8.74
2023-04-03T21:10:43.795Z,8.69
2023-04-03T21:13:49.491Z,8.61
2023-04-03T21:16:17.394Z,8.60
2023-04-03T21:19:06.116Z,8.71
2023-04-03T21:21:36.515Z,8.77
2023-04-03T21:24:09.953Z,8.81
2023-04-03T21:26:39.585Z,8.85
2023-04-03T21:29:08.855Z,8.94
2023-04-03T21:31:54.349Z,8.99
2023-04-03T21:34:25.983Z,8.65
2023-04-03T21:36:54.184Z,8.48
2023-04-03T21:39:23.552Z,8.31
2023-04-03T21:41:52.667Z,8.16
2023-04-03T21:44:20.878Z,8.11
2023-04-03T21:46:53.854Z,8.26
2023-04-03T21:49:24.658Z,8.08
2023-04-03T21:51:52.865Z,8.17
2023-04-03T21:54:21.611Z,8.13
2023-04-03T21:56:49.762Z,8.27
2023-04-03T21:59:18.362Z,8.29
2023-04-03T22:01:46.786Z,8.22
2023-04-03T22:04:15.719Z,8.14
2023-04-03T22:06:46.038Z,8.04
2023-04-03T22:09:14.346Z,7.92
2023-04-03T22:11:46.196Z,7.91
2023-04-03T22:14:14.562Z,7.94
2023-04-03T22:16:46.888Z,7.89
2023-04-03T22:19:15.333Z,7.89
2023-04-03T22:21:44.801Z,8.04
2023-04-03T22:24:13.533Z,7.86
2023-04-03T22:26:44.635Z,8.00
2023-04-03T22:29:13.347Z,7.88
2023-04-03T22:31:42.572Z,7.83
2023-04-03T22:34:11.174Z,7.77
2023-04-03T22:36:39.220Z,7.70
2023-04-03T22:39:10.513Z,7.84
2023-04-03T22:41:38.941Z,7.77
2023-04-03T22:44:07.027Z,7.80
2023-04-03T22:46:35.762Z,7.76
2023-04-03T22:49:04.046Z,7.73
2023-04-03T22:51:32.185Z,7.77
2023-04-03T22:54:00.356Z,7.76
2023-04-03T22:56:30.310Z,7.90
2023-04-03T22:58:58.578Z,7.88
2023-04-03T23:01:27.076Z,7.86
2023-04-03T23:03:55.615Z,7.79
2023-04-03T23:06:23.808Z,7.69
2023-04-03T23:08:52.170Z,7.80
2023-04-03T23:11:20.724Z,7.82
2023-04-03T23:13:50.300Z,7.88
2023-04-03T23:16:18.782Z,7.94
2023-04-03T23:18:47.583Z,7.96
2023-04-03T23:21:15.672Z,7.89
2023-04-03T23:23:43.856Z,7.84
2023-04-03T23:26:12.552Z,7.68
2023-04-03T23:28:42.009Z,7.49
2023-04-03T23:31:12.032Z,7.47
2023-04-03T23:33:43.857Z,7.32
2023-04-03T23:36:15.951Z,7.35
2023-04-03T23:38:44.371Z,7.16
2023-04-03T23:41:12.986Z,7.40
2023-04-03T23:43:42.491Z,7.37
2023-04-03T23:46:12.208Z,7.28
2023-04-03T23:48:40.348Z,7.57
2023-04-03T23:51:08.523Z,7.49
2023-04-03T23:53:36.736Z,7.43
2023-04-03T23:56:09.879Z,7.43
2023-04-03T23:58:38.115Z,7.41
